createdAt,value
2022-12-11T00:05:14.365Z,78054.63
2022-12-11T00:12:16.302Z,78050.53
2022-12-11T00:19:18.300Z,78056.66
2022-12-11T00:26:20.313Z,78070.97
2022-12-11T00:33:22.451Z,78087.34
2022-12-11T00:40:24.425Z,78099.59
2022-12-11T00:47:26.398Z,78099.59
2022-12-11T00:54:28.557Z,78101.66
2022-12-11T01:01:30.653Z,78083.25
2022-12-11T01:08:38.116Z,78091.44
2022-12-11T01:15:43.195Z,78087.34
2022-12-11T01:22:45.397Z,78115.97
2022-12-11T01:29:47.522Z,78111.88
2022-12-11T01:36:49.490Z,78103.69
2022-12-11T01:44:07.718Z,78111.88
2022-12-11T01:51:09.937Z,78109.81
2022-12-11T01:58:12.671Z,78101.66
2022-12-11T02:05:15.032Z,78091.44
2022-12-11T02:12:17.200Z,78097.56
2022-12-11T02:19:25.325Z,78103.69
2022-12-11T02:26:45.960Z,78109.81
2022-12-11T02:33:54.248Z,78152.75
2022-12-11T02:40:57.139Z,78142.53
2022-12-11T02:48:00.397Z,78122.09
2022-12-11T02:55:03.990Z,78122.09
2022-12-11T03:02:06.604Z,78111.88
2022-12-11T03:09:09.008Z,78120.06
2022-12-11T03:16:38.430Z,78118.00
2022-12-11T03:23:53.695Z,78132.31
2022-12-11T03:30:57.075Z,78136.41
2022-12-11T03:38:03.814Z,78152.75
2022-12-11T03:45:07.066Z,78160.94
2022-12-11T03:52:10.329Z,78173.22
2022-12-11T03:59:12.830Z,78199.78
2022-12-11T04:06:14.992Z,78189.56
2022-12-11T04:13:17.245Z,78187.53
2022-12-11T04:20:38.239Z,78195.69
2022-12-11T04:27:52.338Z,78212.06
2022-12-11T04:34:54.299Z,78212.06
2022-12-11T04:41:56.243Z,78207.97
2022-12-11T04:48:58.392Z,78218.19
2022-12-11T04:56:00.604Z,78212.06
2022-12-11T05:03:02.730Z,78203.88
2022-12-11T05:10:05.782Z,78179.34
2022-12-11T05:17:07.743Z,78201.84
2022-12-11T05:24:09.763Z,78187.53
2022-12-11T05:31:17.608Z,78193.66
2022-12-11T05:38:19.969Z,78183.44
2022-12-11T05:45:22.096Z,78158.91
2022-12-11T05:52:24.130Z,78165.03
2022-12-11T05:59:26.515Z,78162.97
2022-12-11T06:06:28.777Z,78144.59
2022-12-11T06:13:30.961Z,78136.41
2022-12-11T06:20:34.409Z,78136.41
2022-12-11T06:27:36.440Z,78130.28
2022-12-11T06:34:38.599Z,78140.50
2022-12-11T06:41:40.622Z,78140.50
2022-12-11T06:48:43.336Z,78128.22
2022-12-11T06:55:45.587Z,78144.59
2022-12-11T07:02:47.719Z,78144.59
2022-12-11T07:09:49.926Z,78136.41
2022-12-11T07:16:52.239Z,78150.72
2022-12-11T07:23:54.344Z,78146.63
2022-12-11T07:30:56.349Z,78148.69
2022-12-11T07:37:59.925Z,78152.75
2022-12-11T07:45:01.951Z,78154.81
2022-12-11T07:52:04.167Z,78158.91
2022-12-11T07:59:06.817Z,78144.59
2022-12-11T08:06:09.568Z,78118.00
2022-12-11T08:13:12.080Z,78115.97
2022-12-11T08:20:14.119Z,78136.41
2022-12-11T08:27:16.276Z,78126.19
2022-12-11T08:34:19.059Z,78118.00
2022-12-11T08:41:26.621Z,78107.78
2022-12-11T08:48:28.766Z,78097.56
2022-12-11T08:55:30.736Z,78101.66
2022-12-11T09:02:32.737Z,78101.66
2022-12-11T09:09:35.058Z,78083.25
2022-12-11T09:16:41.310Z,78089.38
2022-12-11T09:23:44.037Z,78085.28
2022-12-11T09:30:46.209Z,78073.03
2022-12-11T09:37:48.484Z,78073.03
2022-12-11T09:44:54.097Z,78058.72
2022-12-11T09:52:02.147Z,78040.31
2022-12-11T09:59:23.794Z,78028.03
2022-12-11T10:06:47.604Z,78030.09
2022-12-11T10:14:08.320Z,78017.81
2022-12-11T10:21:10.976Z,77993.28
2022-12-11T10:28:18.174Z,77976.94
2022-12-11T10:35:28.556Z,77964.66
2022-12-11T10:42:31.215Z,77956.50
2022-12-11T10:49:35.804Z,77934.00
2022-12-11T10:56:39.765Z,77927.88
2022-12-11T11:04:07.279Z,77901.28
2022-12-11T11:11:20.146Z,77880.84
2022-12-11T11:18:27.573Z,77889.03
2022-12-11T11:25:31.632Z,77889.03
2022-12-11T11:32:39.491Z,77878.81
2022-12-11T11:39:45.751Z,77882.88
2022-12-11T11:47:00.114Z,77852.22
2022-12-11T11:54:27.510Z,77846.09
2022-12-11T12:01:30.716Z,77848.13
2022-12-11T12:08:39.131Z,77837.91
2022-12-11T12:15:50.783Z,77837.91
2022-12-11T12:22:58.882Z,77846.09
2022-12-11T12:30:15.008Z,77837.91
2022-12-11T12:37:28.704Z,77829.72
2022-12-11T12:44:36.853Z,77823.59
2022-12-11T12:51:48.270Z,77821.56
2022-12-11T12:58:52.950Z,77805.19
2022-12-11T13:06:16.783Z,77784.75
2022-12-11T13:14:09.480Z,77801.09
2022-12-11T13:21:45.162Z,77792.94
2022-12-11T13:28:52.175Z,77799.06
2022-12-11T13:36:24.581Z,77790.88
2022-12-11T13:43:30.823Z,77788.84
2022-12-11T13:50:39.019Z,77801.09
2022-12-11T13:57:48.608Z,77797.03
2022-12-11T14:04:53.432Z,77792.94
2022-12-11T14:11:57.596Z,77790.88
2022-12-11T14:19:06.513Z,77805.19
2022-12-11T14:26:23.279Z,77803.16
2022-12-11T14:33:48.457Z,77782.72
2022-12-11T14:40:59.810Z,77764.31
2022-12-11T14:48:21.013Z,77766.34
2022-12-11T14:55:50.782Z,77770.44
2022-12-11T15:03:15.922Z,77760.22
2022-12-11T15:10:29.163Z,77752.03
2022-12-11T15:17:37.691Z,77752.03
2022-12-11T15:24:44.176Z,77754.09
2022-12-11T15:31:48.389Z,77737.72
2022-12-11T15:38:50.527Z,77733.66
2022-12-11T15:45:53.009Z,77752.03
2022-12-11T15:52:56.550Z,77731.59
2022-12-11T15:59:59.410Z,77719.34
2022-12-11T16:07:03.924Z,77741.81
2022-12-11T16:14:06.573Z,77764.31
2022-12-11T16:21:08.855Z,77760.22
2022-12-11T16:28:13.327Z,77764.31
2022-12-11T16:35:26.694Z,77782.72
2022-12-11T16:42:29.294Z,77780.66
2022-12-11T16:49:33.520Z,77784.75
2022-12-11T16:56:37.227Z,77760.22
2022-12-11T17:03:40.627Z,77758.19
2022-12-11T17:10:43.084Z,77762.25
2022-12-11T17:17:46.161Z,77774.53
2022-12-11T17:24:49.395Z,77774.53
2022-12-11T17:31:53.214Z,77784.75
2022-12-11T17:38:55.973Z,77782.72
2022-12-11T17:45:58.295Z,77809.28
2022-12-11T17:53:01.064Z,77813.38
2022-12-11T18:00:03.805Z,77819.50
2022-12-11T18:07:06.643Z,77794.97
2022-12-11T18:14:15.255Z,77788.84
2022-12-11T18:21:22.483Z,77817.47
2022-12-11T18:28:25.700Z,77825.66
2022-12-11T18:35:30.723Z,77801.09
2022-12-11T18:42:34.670Z,77817.47
2022-12-11T18:49:37.962Z,77823.59
2022-12-11T18:56:42.847Z,77833.81
2022-12-11T19:04:01.983Z,77839.97
2022-12-11T19:11:07.004Z,77854.25
2022-12-11T19:18:14.016Z,77854.25
2022-12-11T19:25:17.040Z,77850.19
2022-12-11T19:32:19.477Z,77837.91
2022-12-11T19:39:24.111Z,77829.72
2022-12-11T19:46:28.013Z,77850.19
2022-12-11T19:53:31.622Z,77844.03
2022-12-11T20:00:38.701Z,77850.19
2022-12-11T20:07:43.425Z,77833.81
2022-12-11T20:14:49.065Z,77848.13
2022-12-11T20:21:54.170Z,77842.00
2022-12-11T20:28:56.844Z,77837.91
2022-12-11T20:35:59.694Z,77833.81
2022-12-11T20:43:02.520Z,77842.00
2022-12-11T20:50:05.941Z,77856.31
2022-12-11T20:57:09.142Z,77850.19
2022-12-11T21:04:11.837Z,77846.09
2022-12-11T21:11:16.263Z,77839.97
2022-12-11T21:18:25.096Z,77852.22
2022-12-11T21:25:27.629Z,77866.53
2022-12-11T21:32:30.498Z,77866.53
2022-12-11T21:39:39.325Z,77860.41
2022-12-11T21:46:44.234Z,77852.22
2022-12-11T21:53:46.485Z,77854.25
2022-12-11T22:00:48.722Z,77833.81
2022-12-11T22:07:50.994Z,77837.91
2022-12-11T22:14:53.223Z,77825.66
2022-12-11T22:21:55.480Z,77807.25
2022-12-11T22:28:58.464Z,77821.56
2022-12-11T22:36:00.828Z,77829.72
2022-12-11T22:43:03.019Z,77815.41
2022-12-11T22:50:06.579Z,77821.56
2022-12-11T22:57:09.325Z,77829.72
2022-12-11T23:04:11.371Z,77813.38
2022-12-11T23:11:22.615Z,77807.25
2022-12-11T23:18:24.567Z,77811.34
2022-12-11T23:25:28.262Z,77799.06
2022-12-11T23:32:30.252Z,77801.09
2022-12-11T23:39:32.286Z,77788.84
2022-12-11T23:46:34.728Z,77772.50
2022-12-11T23:53:36.712Z,77788.84
